createdAt,value
2018-08-24T00:00:41.761Z,100643.77
2018-08-24T00:03:10.325Z,100639.96
2018-08-24T00:05:38.888Z,100639.67
2018-08-24T00:08:07.555Z,100640.78
2018-08-24T00:10:36.200Z,100632.02
2018-08-24T00:13:04.750Z,100641.03
2018-08-24T00:15:33.445Z,100648.69
2018-08-24T00:18:02.145Z,100638.84
2018-08-24T00:20:30.624Z,100640.48
2018-08-24T00:22:59.157Z,100650.34
2018-08-24T00:25:27.637Z,100646.73
2018-08-24T00:27:56.286Z,100640.45
2018-08-24T00:30:24.821Z,100633.42
2018-08-24T00:32:53.316Z,100623.81
2018-08-24T00:35:22.715Z,100628.94
2018-08-24T00:37:51.305Z,100623.72
2018-08-24T00:40:19.857Z,100621.29
2018-08-24T00:42:48.406Z,100627.50
2018-08-24T00:45:16.881Z,100628.83
2018-08-24T00:47:45.576Z,100627.75
2018-08-24T00:50:14.093Z,100621.44
2018-08-24T00:52:42.729Z,100620.30
2018-08-24T00:55:11.224Z,100619.00
2018-08-24T00:57:39.793Z,100616.19
2018-08-24T01:00:08.803Z,100602.80
2018-08-24T01:02:37.311Z,100605.23
2018-08-24T01:05:06.211Z,100603.92
2018-08-24T01:07:40.275Z,100602.89
2018-08-24T01:10:14.109Z,100597.88
2018-08-24T01:12:42.626Z,100600.06
2018-08-24T01:15:12.163Z,100593.47
2018-08-24T01:17:45.916Z,100598.41
2018-08-24T01:20:14.467Z,100593.91
2018-08-24T01:22:42.987Z,100594.80
2018-08-24T01:25:11.510Z,100599.44
2018-08-24T01:27:39.978Z,100599.67
2018-08-24T01:30:08.506Z,100600.05
2018-08-24T01:32:37.150Z,100599.94
2018-08-24T01:35:05.654Z,100603.70
2018-08-24T01:37:34.116Z,100600.93
2018-08-24T01:40:02.745Z,100596.61
2018-08-24T01:42:31.256Z,100593.59
2018-08-24T01:44:59.735Z,100590.32
2018-08-24T01:47:28.285Z,100589.19
2018-08-24T01:49:56.810Z,100589.78
2018-08-24T01:52:25.330Z,100585.19
2018-08-24T01:54:53.817Z,100584.31
2018-08-24T01:57:22.537Z,100590.55
2018-08-24T01:59:51.108Z,100587.55
2018-08-24T02:02:19.631Z,100593.28
2018-08-24T02:04:48.184Z,100586.53
2018-08-24T02:07:16.792Z,100585.71
2018-08-24T02:09:45.357Z,100588.11
2018-08-24T02:12:19.082Z,100589.16
2018-08-24T02:14:47.632Z,100596.78
2018-08-24T02:17:21.333Z,100600.56
2018-08-24T02:19:55.152Z,100601.19
2018-08-24T02:22:23.671Z,100596.83
2018-08-24T02:24:52.200Z,100603.84
2018-08-24T02:27:20.702Z,100599.25
2018-08-24T02:29:52.322Z,100606.58
2018-08-24T02:32:20.932Z,100599.50
2018-08-24T02:34:49.485Z,100599.44
2018-08-24T02:37:17.959Z,100592.36
2018-08-24T02:39:46.591Z,100590.17
2018-08-24T02:42:15.097Z,100586.84
2018-08-24T02:44:43.608Z,100587.97
2018-08-24T02:47:14.591Z,100595.34
2018-08-24T02:49:43.352Z,100590.80
2018-08-24T02:52:11.874Z,100587.48
2018-08-24T02:54:40.419Z,100590.20
2018-08-24T02:57:08.916Z,100592.94
2018-08-24T02:59:37.470Z,100585.30
2018-08-24T03:02:06.254Z,100583.66
2018-08-24T03:04:34.829Z,100589.33
2018-08-24T03:07:03.324Z,100594.75
2018-08-24T03:09:31.896Z,100595.36
2018-08-24T03:12:00.383Z,100589.33
2018-08-24T03:14:29.113Z,100589.89
2018-08-24T03:17:02.774Z,100587.14
2018-08-24T03:19:31.372Z,100594.48
2018-08-24T03:21:59.950Z,100599.95
2018-08-24T03:24:28.469Z,100606.73
2018-08-24T03:26:56.996Z,100607.20
2018-08-24T03:29:25.925Z,100604.31
2018-08-24T03:31:54.492Z,100604.83
2018-08-24T03:34:23.246Z,100600.22
2018-08-24T03:36:51.779Z,100605.39
2018-08-24T03:39:20.429Z,100599.40
2018-08-24T03:41:49.186Z,100594.04
2018-08-24T03:44:17.810Z,100595.97
2018-08-24T03:46:46.493Z,100600.80
2018-08-24T03:49:14.983Z,100600.27
2018-08-24T03:51:43.485Z,100596.48
2018-08-24T03:54:15.021Z,100588.33
2018-08-24T03:56:44.637Z,100591.59
2018-08-24T03:59:13.529Z,100590.23
2018-08-24T04:01:42.178Z,100591.08
2018-08-24T04:04:10.853Z,100578.86
2018-08-24T04:06:39.598Z,100586.76
2018-08-24T04:09:08.124Z,100581.00
2018-08-24T04:11:36.993Z,100585.11
2018-08-24T04:14:05.528Z,100586.23
2018-08-24T04:16:38.206Z,100588.42
2018-08-24T04:19:10.857Z,100578.88
2018-08-24T04:21:39.383Z,100578.86
2018-08-24T04:24:08.190Z,100572.59
2018-08-24T04:26:36.848Z,100576.41
2018-08-24T04:29:05.368Z,100577.45
2018-08-24T04:31:33.876Z,100583.78
2018-08-24T04:34:02.605Z,100579.42
2018-08-24T04:36:32.611Z,100580.49
2018-08-24T04:39:01.236Z,100580.49
2018-08-24T04:41:29.734Z,100585.41
2018-08-24T04:43:58.352Z,100581.32
2018-08-24T04:46:27.094Z,100588.73
2018-08-24T04:48:55.625Z,100587.62
2018-08-24T04:51:24.343Z,100582.14
2018-08-24T04:53:52.822Z,100585.72
2018-08-24T04:56:21.282Z,100592.86
2018-08-24T04:58:49.947Z,100593.45
2018-08-24T05:01:18.648Z,100585.52
2018-08-24T05:03:47.247Z,100585.28
2018-08-24T05:06:15.733Z,100580.66
2018-08-24T05:08:45.177Z,100570.58
2018-08-24T05:11:13.681Z,100578.77
2018-08-24T05:13:42.492Z,100580.98
2018-08-24T05:16:11.167Z,100581.82
2018-08-24T05:18:39.640Z,100589.48
2018-08-24T05:21:08.553Z,100586.23
2018-08-24T05:23:36.974Z,100585.16
2018-08-24T05:26:05.478Z,100587.12
2018-08-24T05:28:33.969Z,100585.23
2018-08-24T05:31:02.597Z,100587.97
2018-08-24T05:33:31.147Z,100594.26
2018-08-24T05:35:59.864Z,100583.95
2018-08-24T05:38:28.713Z,100594.05
2018-08-24T05:40:57.419Z,100589.41
2018-08-24T05:43:25.869Z,100594.88
2018-08-24T05:45:54.677Z,100594.05
2018-08-24T05:48:24.790Z,100603.93
2018-08-24T05:50:53.532Z,100611.00
2018-08-24T05:53:22.215Z,100607.16
2018-08-24T05:55:50.713Z,100606.08
2018-08-24T05:58:19.255Z,100608.81
2018-08-24T06:00:47.901Z,100620.84
2018-08-24T06:03:16.438Z,100624.36
2018-08-24T06:05:50.453Z,100614.86
2018-08-24T06:08:18.905Z,100614.31
2018-08-24T06:10:47.671Z,100614.31
2018-08-24T06:13:18.090Z,100616.22
2018-08-24T06:15:48.497Z,100611.59
2018-08-24T06:18:17.137Z,100618.41
2018-08-24T06:20:45.645Z,100621.68
2018-08-24T06:23:15.789Z,100609.65
2018-08-24T06:25:44.349Z,100615.64
2018-08-24T06:28:12.875Z,100610.76
2018-08-24T06:30:42.373Z,100617.83
2018-08-24T06:33:10.894Z,100620.56
2018-08-24T06:35:39.572Z,100621.91
2018-08-24T06:38:08.409Z,100622.22
2018-08-24T06:40:36.962Z,100631.23
2018-08-24T06:43:05.709Z,100640.50
2018-08-24T06:45:34.328Z,100642.16
2018-08-24T06:48:02.948Z,100638.35
2018-08-24T06:50:31.524Z,100647.90
2018-08-24T06:53:00.212Z,100650.64
2018-08-24T06:55:28.905Z,100653.08
2018-08-24T06:57:57.468Z,100652.88
2018-08-24T07:00:30.428Z,100653.95
2018-08-24T07:02:59.544Z,100661.06
2018-08-24T07:05:28.194Z,100658.63
2018-08-24T07:07:57.069Z,100663.80
2018-08-24T07:10:26.008Z,100677.74
2018-08-24T07:12:54.709Z,100676.66
2018-08-24T07:15:23.244Z,100687.05
2018-08-24T07:17:56.994Z,100685.15
2018-08-24T07:20:25.581Z,100681.88
2018-08-24T07:22:54.166Z,100685.71
2018-08-24T07:25:22.724Z,100693.31
2018-08-24T07:27:51.270Z,100693.31
2018-08-24T07:30:20.546Z,100694.38
2018-08-24T07:32:49.016Z,100703.11
2018-08-24T07:35:17.597Z,100697.88
2018-08-24T07:37:46.273Z,100701.97
2018-08-24T07:40:14.813Z,100706.38
2018-08-24T07:42:43.348Z,100708.88
2018-08-24T07:45:11.910Z,100721.74
2018-08-24T07:47:40.393Z,100721.45
2018-08-24T07:50:09.009Z,100720.38
2018-08-24T07:52:37.514Z,100727.78
2018-08-24T07:55:06.154Z,100726.70
2018-08-24T07:57:34.869Z,100723.17
2018-08-24T08:00:04.164Z,100727.31
2018-08-24T08:02:38.272Z,100722.67
2018-08-24T08:05:06.823Z,100727.03
2018-08-24T08:07:35.862Z,100737.69
2018-08-24T08:10:04.484Z,100737.16
2018-08-24T08:12:33.106Z,100741.55
2018-08-24T08:15:08.660Z,100733.89
2018-08-24T08:17:38.048Z,100736.59
2018-08-24T08:20:07.168Z,100730.30
2018-08-24T08:22:35.674Z,100739.84
2018-08-24T08:25:04.300Z,100747.78
2018-08-24T08:27:33.544Z,100752.45
2018-08-24T08:30:03.804Z,100756.29
2018-08-24T08:32:32.852Z,100759.31
2018-08-24T08:35:01.609Z,100748.06
2018-08-24T08:37:30.217Z,100755.44
2018-08-24T08:39:59.483Z,100747.77
2018-08-24T08:42:28.493Z,100756.79
2018-08-24T08:44:57.164Z,100750.45
2018-08-24T08:47:26.085Z,100760.02
2018-08-24T08:49:54.609Z,100760.86
2018-08-24T08:52:23.145Z,100770.22
2018-08-24T08:54:52.068Z,100765.25
2018-08-24T08:57:20.701Z,100759.98
2018-08-24T08:59:49.503Z,100771.50
2018-08-24T09:02:18.065Z,100760.72
2018-08-24T09:04:46.598Z,100767.70
2018-08-24T09:07:15.109Z,100762.44
2018-08-24T09:09:44.157Z,100777.28
2018-08-24T09:12:12.803Z,100777.06
2018-08-24T09:14:41.320Z,100762.98
2018-08-24T09:17:15.012Z,100763.83
2018-08-24T09:19:48.964Z,100765.13
2018-08-24T09:22:22.742Z,100761.91
2018-08-24T09:24:56.545Z,100763.83
2018-08-24T09:27:32.196Z,100767.25
2018-08-24T09:30:02.898Z,100769.84
2018-08-24T09:32:31.614Z,100772.06
2018-08-24T09:35:00.333Z,100767.80
2018-08-24T09:37:37.220Z,100767.36
2018-08-24T09:40:06.765Z,100784.91
2018-08-24T09:42:35.312Z,100772.63
2018-08-24T09:45:03.996Z,100779.92
2018-08-24T09:47:37.796Z,100772.16
2018-08-24T09:50:12.099Z,100768.19
2018-08-24T09:52:40.691Z,100777.59
2018-08-24T09:55:09.274Z,100779.75
2018-08-24T09:57:37.846Z,100777.41
2018-08-24T10:00:06.752Z,100774.44
2018-08-24T10:02:40.499Z,100778.92
2018-08-24T10:05:14.425Z,100779.23
2018-08-24T10:07:48.328Z,100782.34
2018-08-24T10:10:16.919Z,100780.89
2018-08-24T10:12:45.456Z,100776.35
2018-08-24T10:15:14.268Z,100786.00
2018-08-24T10:17:42.898Z,100787.70
2018-08-24T10:20:11.845Z,100775.76
2018-08-24T10:22:40.440Z,100780.20
2018-08-24T10:25:08.925Z,100779.55
2018-08-24T10:27:37.453Z,100782.65
2018-08-24T10:30:06.548Z,100783.70
2018-08-24T10:32:35.332Z,100783.42
2018-08-24T10:35:03.853Z,100777.45
2018-08-24T10:37:32.355Z,100792.43
2018-08-24T10:40:00.867Z,100797.84
2018-08-24T10:42:29.342Z,100796.64
2018-08-24T10:44:57.826Z,100793.94
2018-08-24T10:47:26.535Z,100796.22
2018-08-24T10:49:54.993Z,100791.53
2018-08-24T10:52:24.364Z,100795.49
2018-08-24T10:54:52.878Z,100794.23
2018-08-24T10:57:21.376Z,100789.60
2018-08-24T10:59:49.888Z,100788.48
2018-08-24T11:02:18.382Z,100790.13
2018-08-24T11:04:46.897Z,100801.29
2018-08-24T11:07:15.515Z,100787.40
2018-08-24T11:09:44.008Z,100803.22
2018-08-24T11:12:12.495Z,100792.58
2018-08-24T11:14:41.093Z,100798.31
2018-08-24T11:17:09.836Z,100796.22
2018-08-24T11:19:38.379Z,100791.69
2018-08-24T11:22:07.025Z,100793.61
2018-08-24T11:24:35.533Z,100797.29
2018-08-24T11:27:04.172Z,100795.97
2018-08-24T11:29:32.788Z,100797.86
2018-08-24T11:32:01.354Z,100805.63
2018-08-24T11:34:29.866Z,100804.33
2018-08-24T11:36:58.496Z,100790.80
2018-08-24T11:39:27.017Z,100814.26
2018-08-24T11:41:55.633Z,100804.39
2018-08-24T11:44:24.224Z,100805.77
2018-08-24T11:46:52.867Z,100793.77
2018-08-24T11:49:21.346Z,100798.64
2018-08-24T11:51:49.887Z,100786.96
2018-08-24T11:54:18.522Z,100804.12
2018-08-24T11:56:47.221Z,100809.74
2018-08-24T11:59:15.710Z,100809.64
2018-08-24T12:01:44.185Z,100797.50
2018-08-24T12:04:12.690Z,100817.16
2018-08-24T12:06:41.301Z,100805.95
2018-08-24T12:09:10.531Z,100809.16
2018-08-24T12:11:39.181Z,100816.55
2018-08-24T12:14:07.816Z,100802.03
2018-08-24T12:16:36.475Z,100811.05
2018-08-24T12:19:05.021Z,100808.89
2018-08-24T12:21:33.597Z,100812.18
2018-08-24T12:24:02.293Z,100813.73
2018-08-24T12:26:30.836Z,100824.25
2018-08-24T12:28:59.519Z,100812.67
2018-08-24T12:31:29.131Z,100810.66
2018-08-24T12:33:57.798Z,100810.23
2018-08-24T12:36:26.432Z,100807.97
2018-08-24T12:38:54.966Z,100813.75
2018-08-24T12:41:23.585Z,100804.95
2018-08-24T12:43:52.031Z,100810.98
2018-08-24T12:46:20.523Z,100814.77
2018-08-24T12:48:49.058Z,100820.45
2018-08-24T12:51:17.595Z,100816.91
2018-08-24T12:53:46.098Z,100819.84
2018-08-24T12:56:20.007Z,100820.41
2018-08-24T12:58:49.128Z,100841.33
2018-08-24T13:01:18.124Z,100833.87
2018-08-24T13:03:46.628Z,100840.55
2018-08-24T13:06:15.241Z,100843.56
2018-08-24T13:08:44.388Z,100829.95
2018-08-24T13:11:13.553Z,100839.61
2018-08-24T13:13:42.486Z,100836.31
2018-08-24T13:16:11.125Z,100841.77
2018-08-24T13:18:39.747Z,100833.73
2018-08-24T13:21:08.353Z,100822.44
2018-08-24T13:23:37.026Z,100822.64
2018-08-24T13:26:05.613Z,100818.76
2018-08-24T13:28:34.156Z,100812.02
2018-08-24T13:31:02.635Z,100828.76
2018-08-24T13:33:31.210Z,100815.76
2018-08-24T13:35:59.704Z,100811.17
2018-08-24T13:38:28.224Z,100815.66
2018-08-24T13:40:56.763Z,100812.67
2018-08-24T13:43:25.285Z,100815.60
2018-08-24T13:45:53.835Z,100809.27
2018-08-24T13:48:22.374Z,100815.28
2018-08-24T13:50:51.098Z,100825.88
2018-08-24T13:53:19.676Z,100828.03
2018-08-24T13:55:48.213Z,100830.08
2018-08-24T13:58:16.734Z,100827.05
2018-08-24T14:00:45.259Z,100817.48
2018-08-24T14:03:13.744Z,100818.23
2018-08-24T14:05:42.288Z,100810.88
2018-08-24T14:08:10.808Z,100809.72
2018-08-24T14:10:39.871Z,100806.59
2018-08-24T14:13:08.492Z,100812.04
2018-08-24T14:15:36.965Z,100804.81
2018-08-24T14:18:05.487Z,100811.68
2018-08-24T14:20:34.830Z,100818.26
2018-08-24T14:23:03.309Z,100812.59
2018-08-24T14:25:31.841Z,100813.19
2018-08-24T14:28:00.331Z,100804.72
2018-08-24T14:30:28.844Z,100804.56
2018-08-24T14:32:57.331Z,100796.16
2018-08-24T14:35:25.995Z,100790.97
2018-08-24T14:37:54.498Z,100812.05
2018-08-24T14:40:23.023Z,100801.20
2018-08-24T14:42:51.525Z,100805.98
2018-08-24T14:45:20.269Z,100802.70
2018-08-24T14:47:48.808Z,100802.42
2018-08-24T14:50:17.386Z,100800.22
2018-08-24T14:52:45.902Z,100796.91
2018-08-24T14:55:14.423Z,100796.67
2018-08-24T14:57:43.359Z,100791.81
2018-08-24T15:00:12.008Z,100790.72
2018-08-24T15:02:40.741Z,100783.84
2018-08-24T15:05:11.190Z,100789.64
2018-08-24T15:07:40.173Z,100784.98
2018-08-24T15:10:09.965Z,100782.77
2018-08-24T15:12:38.872Z,100778.39
2018-08-24T15:15:08.077Z,100780.17
2018-08-24T15:17:36.701Z,100782.64
2018-08-24T15:20:06.062Z,100782.33
2018-08-24T15:22:34.873Z,100789.78
2018-08-24T15:25:03.461Z,100791.62
2018-08-24T15:27:32.041Z,100795.25
2018-08-24T15:30:00.767Z,100796.59
2018-08-24T15:32:29.309Z,100810.16
2018-08-24T15:34:57.876Z,100800.91
2018-08-24T15:37:28.119Z,100798.66
2018-08-24T15:39:56.633Z,100800.59
2018-08-24T15:42:25.134Z,100798.63
2018-08-24T15:44:53.697Z,100803.91
2018-08-24T15:47:22.199Z,100807.56
2018-08-24T15:49:51.176Z,100810.05
2018-08-24T15:52:19.700Z,100824.59
2018-08-24T15:54:48.182Z,100823.61
2018-08-24T15:57:16.900Z,100813.73
2018-08-24T15:59:45.424Z,100808.70
2018-08-24T16:02:13.918Z,100803.77
2018-08-24T16:04:42.422Z,100796.87
2018-08-24T16:07:10.964Z,100797.47
2018-08-24T16:09:39.588Z,100792.87
2018-08-24T16:12:08.211Z,100794.27
2018-08-24T16:14:36.687Z,100793.20
2018-08-24T16:17:05.417Z,100787.19
2018-08-24T16:19:33.923Z,100788.30
2018-08-24T16:22:02.419Z,100785.31
2018-08-24T16:24:30.917Z,100795.97
2018-08-24T16:26:59.694Z,100795.70
2018-08-24T16:29:28.170Z,100794.04
2018-08-24T16:31:56.656Z,100801.08
2018-08-24T16:34:25.210Z,100792.83
2018-08-24T16:36:53.744Z,100798.84
2018-08-24T16:39:22.432Z,100803.99
2018-08-24T16:41:51.079Z,100797.17
2018-08-24T16:44:19.595Z,100789.52
2018-08-24T16:46:48.347Z,100786.72
2018-08-24T16:49:16.810Z,100793.30
2018-08-24T16:51:45.367Z,100791.64
2018-08-24T16:54:14.238Z,100792.47
2018-08-24T16:56:42.855Z,100797.34
2018-08-24T16:59:11.450Z,100789.98
2018-08-24T17:01:40.809Z,100788.62
2018-08-24T17:04:09.295Z,100794.16
2018-08-24T17:06:37.810Z,100782.98
2018-08-24T17:09:09.590Z,100785.70
2018-08-24T17:11:38.201Z,100781.36
2018-08-24T17:14:07.824Z,100787.08
2018-08-24T17:16:36.680Z,100787.02
2018-08-24T17:19:05.246Z,100789.74
2018-08-24T17:21:33.912Z,100792.53
2018-08-24T17:24:02.639Z,100790.63
2018-08-24T17:26:31.153Z,100787.06
2018-08-24T17:28:59.690Z,100792.25
2018-08-24T17:31:28.233Z,100784.34
2018-08-24T17:33:56.746Z,100788.44
2018-08-24T17:36:25.270Z,100791.70
2018-08-24T17:38:53.905Z,100788.14
2018-08-24T17:41:22.594Z,100793.86
2018-08-24T17:43:51.522Z,100785.94
2018-08-24T17:46:19.994Z,100781.55
2018-08-24T17:48:48.542Z,100777.45
2018-08-24T17:51:17.214Z,100783.99
2018-08-24T17:53:45.733Z,100786.19
2018-08-24T17:56:14.369Z,100782.61
2018-08-24T17:58:42.938Z,100783.20
2018-08-24T18:01:11.522Z,100783.98
2018-08-24T18:03:40.143Z,100777.39
2018-08-24T18:06:08.649Z,100773.81
2018-08-24T18:08:37.553Z,100768.36
2018-08-24T18:11:06.098Z,100765.98
2018-08-24T18:13:34.661Z,100765.25
2018-08-24T18:16:03.560Z,100760.38
2018-08-24T18:18:32.179Z,100758.38
2018-08-24T18:21:00.741Z,100762.17
2018-08-24T18:23:29.247Z,100761.05
2018-08-24T18:25:57.756Z,100765.67
2018-08-24T18:28:26.316Z,100770.56
2018-08-24T18:30:54.893Z,100766.75
2018-08-24T18:33:23.557Z,100765.63
2018-08-24T18:35:52.179Z,100768.11
2018-08-24T18:38:20.668Z,100768.04
2018-08-24T18:40:49.245Z,100765.53
2018-08-24T18:43:18.125Z,100766.60
2018-08-24T18:45:46.780Z,100762.26
2018-08-24T18:48:15.516Z,100763.02
2018-08-24T18:50:44.376Z,100762.20
2018-08-24T18:53:12.909Z,100766.83
2018-08-24T18:55:41.460Z,100771.42
2018-08-24T18:58:10.549Z,100774.56
2018-08-24T19:00:39.381Z,100779.27
2018-08-24T19:03:08.509Z,100781.98
2018-08-24T19:05:37.089Z,100790.09
2018-08-24T19:08:10.556Z,100786.48
2018-08-24T19:10:44.761Z,100786.75
2018-08-24T19:13:15.333Z,100780.97
2018-08-24T19:15:45.246Z,100777.64
2018-08-24T19:18:19.101Z,100775.39
2018-08-24T19:20:53.181Z,100778.67
2018-08-24T19:23:21.779Z,100778.06
2018-08-24T19:25:50.856Z,100778.02
2018-08-24T19:28:24.740Z,100783.66
2018-08-24T19:30:53.277Z,100783.59
2018-08-24T19:33:21.821Z,100787.01
2018-08-24T19:35:50.779Z,100780.55
2018-08-24T19:38:19.312Z,100779.08
2018-08-24T19:40:52.989Z,100779.41
2018-08-24T19:43:21.550Z,100777.09
2018-08-24T19:45:50.375Z,100777.11
2018-08-24T19:48:24.197Z,100774.05
2018-08-24T19:50:52.825Z,100775.57
2018-08-24T19:53:21.390Z,100779.02
2018-08-24T19:55:49.924Z,100774.72
2018-08-24T19:58:23.793Z,100775.25
2018-08-24T20:00:52.474Z,100783.81
2018-08-24T20:03:20.963Z,100778.55
2018-08-24T20:05:54.650Z,100773.73
2018-08-24T20:08:28.395Z,100780.21
2018-08-24T20:10:56.959Z,100772.70
2018-08-24T20:13:25.458Z,100769.33
2018-08-24T20:15:59.289Z,100773.17
2018-08-24T20:18:27.808Z,100769.54
2018-08-24T20:20:56.495Z,100773.64
2018-08-24T20:23:25.095Z,100773.97
2018-08-24T20:25:53.738Z,100774.44
2018-08-24T20:28:22.352Z,100758.72
2018-08-24T20:30:51.058Z,100756.17
2018-08-24T20:33:19.603Z,100762.59
2018-08-24T20:35:48.205Z,100765.81
2018-08-24T20:38:17.433Z,100764.95
2018-08-24T20:40:46.064Z,100761.46
2018-08-24T20:43:14.926Z,100760.52
2018-08-24T20:45:43.589Z,100753.69
2018-08-24T20:48:12.086Z,100753.84
2018-08-24T20:50:40.634Z,100760.08
2018-08-24T20:53:10.182Z,100758.22
2018-08-24T20:55:39.091Z,100753.28
2018-08-24T20:58:07.486Z,100748.91
2018-08-24T21:00:36.020Z,100752.45
2018-08-24T21:03:04.682Z,100750.14
2018-08-24T21:05:33.162Z,100751.02
2018-08-24T21:08:01.714Z,100743.60
2018-08-24T21:10:30.340Z,100750.59
2018-08-24T21:12:59.124Z,100745.29
2018-08-24T21:15:27.601Z,100745.69
2018-08-24T21:17:56.378Z,100749.83
2018-08-24T21:20:24.961Z,100748.13
2018-08-24T21:22:53.465Z,100746.61
2018-08-24T21:25:22.193Z,100741.57
2018-08-24T21:27:50.729Z,100740.95
2018-08-24T21:30:19.362Z,100739.22
2018-08-24T21:32:47.797Z,100736.34
2018-08-24T21:35:16.315Z,100730.97
2018-08-24T21:37:44.928Z,100736.73
2018-08-24T21:40:13.712Z,100728.22
2018-08-24T21:42:42.237Z,100729.44
2018-08-24T21:45:11.218Z,100721.93
2018-08-24T21:47:39.829Z,100728.83
2018-08-24T21:50:08.421Z,100722.98
2018-08-24T21:52:37.018Z,100727.76
2018-08-24T21:55:05.847Z,100730.74
2018-08-24T21:57:34.335Z,100723.47
2018-08-24T22:00:03.037Z,100728.22
2018-08-24T22:02:31.558Z,100743.73
2018-08-24T22:05:00.143Z,100761.88
2018-08-24T22:07:28.681Z,100775.05
2018-08-24T22:09:57.599Z,100770.81
2018-08-24T22:12:26.154Z,100772.25
2018-08-24T22:14:54.678Z,100776.43
2018-08-24T22:17:23.148Z,100768.30
2018-08-24T22:19:51.861Z,100757.22
2018-08-24T22:22:20.393Z,100752.69
2018-08-24T22:24:48.979Z,100758.52
2018-08-24T22:27:17.643Z,100752.81
2018-08-24T22:29:46.289Z,100760.91
2018-08-24T22:32:14.857Z,100755.20
2018-08-24T22:34:43.541Z,100754.83
2018-08-24T22:37:12.455Z,100753.97
2018-08-24T22:39:41.032Z,100747.58
2018-08-24T22:42:09.540Z,100754.31
2018-08-24T22:44:38.180Z,100750.73
2018-08-24T22:47:06.772Z,100745.29
2018-08-24T22:49:36.528Z,100741.21
2018-08-24T22:52:05.042Z,100747.02
2018-08-24T22:54:33.607Z,100743.36
2018-08-24T22:57:02.257Z,100730.70
2018-08-24T22:59:31.142Z,100723.17
2018-08-24T23:01:59.977Z,100720.30
2018-08-24T23:04:28.569Z,100720.53
2018-08-24T23:06:57.073Z,100720.42
2018-08-24T23:09:25.577Z,100705.44
2018-08-24T23:11:54.059Z,100697.52
2018-08-24T23:14:22.861Z,100696.16
2018-08-24T23:16:51.412Z,100694.64
2018-08-24T23:19:19.950Z,100693.58
2018-08-24T23:21:48.555Z,100697.85
2018-08-24T23:24:17.043Z,100694.80
2018-08-24T23:26:45.577Z,100701.77
2018-08-24T23:29:14.087Z,100693.31
2018-08-24T23:31:42.639Z,100691.36
2018-08-24T23:34:11.328Z,100692.50
2018-08-24T23:36:39.790Z,100683.67
2018-08-24T23:39:09.493Z,100679.66
2018-08-24T23:41:37.992Z,100671.94
2018-08-24T23:44:06.638Z,100667.33
2018-08-24T23:46:35.175Z,100658.94
2018-08-24T23:49:03.683Z,100653.87
2018-08-24T23:51:32.310Z,100648.91
2018-08-24T23:54:00.892Z,100648.14
2018-08-24T23:56:29.376Z,100643.24
2018-08-24T23:58:57.895Z,100637.98
